sensor_id;sensor_type;location;lat;lon;timestamp;temperature;humidity
52397;DHT22;38322;53.108;6.308;2024-01-10T06:01:19;-5.10;99.90
52397;DHT22;38322;53.108;6.308;2024-01-10T06:03:45;-5.00;99.90
52397;DHT22;38322;53.108;6.308;2024-01-10T06:06:11;-5.10;99.90
52397;DHT22;38322;53.108;6.308;2024-01-10T06:08:37;-5.00;99.90
52397;DHT22;38322;53.108;6.308;2024-01-10T06:11:04;-5.10;99.90
52397;DHT22;38322;53.108;6.308;2024-01-10T06:13:35;-5.10;99.90
52397;DHT22;38322;53.108;6.308;2024-01-10T06:16:01;-5.10;99.90
52397;DHT22;38322;53.108;6.308;2024-01-10T06:18:28;-5.00;99.90
52397;DHT22;38322;53.108;6.308;2024-01-10T06:20:54;-5.00;99.90
52397;DHT22;38322;53.108;6.308;2024-01-10T06:23:19;-5.00;99.90
52397;DHT22;38322;53.108;6.308;2024-01-10T06:25:45;-5.00;99.90
52397;DHT22;38322;53.108;6.308;2024-01-10T06:28:11;-4.90;99.90
52397;DHT22;38322;53.108;6.308;2024-01-10T06:30:37;-4.90;99.90
52397;DHT22;38322;53.108;6.308;2024-01-10T06:33:03;-4.90;99.90
52397;DHT22;38322;53.108;6.308;2024-01-10T06:35:32;-4.90;99.90
52397;DHT22;38322;53.108;6.308;2024-01-10T06:37:58;-4.90;99.90
52397;DHT22;38322;53.108;6.308;2024-01-10T06:40:24;-4.90;99.90
52397;DHT22;38322;53.108;6.308;2024-01-10T06:42:50;-4.90;99.90
52397;DHT22;38322;53.108;6.308;2024-01-10T06:45:16;-4.90;99.90
52397;DHT22;38322;53.108;6.308;2024-01-10T06:47:41;-5.00;99.90
52397;DHT22;38322;53.108;6.308;2024-01-10T06:50:07;-5.00;99.90
52397;DHT22;38322;53.108;6.308;2024-01-10T06:52:34;-5.00;99.90
52397;DHT22;38322;53.108;6.308;2024-01-10T06:55:00;-5.00;99.90
52397;DHT22;38322;53.108;6.308;2024-01-10T06:57:26;-5.00;99.90
52397;DHT22;38322;53.108;6.308;2024-01-10T06:59:53;-5.00;99.90
52397;DHT22;38322;53.108;6.308;2024-01-10T07:02:18;-5.00;99.90
52397;DHT22;38322;53.108;6.308;2024-01-10T07:04:44;-5.10;99.90
52397;DHT22;38322;53.108;6.308;2024-01-10T07:07:14;-5.10;99.90
52397;DHT22;38322;53.108;6.308;2024-01-10T07:09:40;-5.00;99.90
52397;DHT22;38322;53.108;6.308;2024-01-10T07:12:07;-5.10;99.90
52397;DHT22;38322;53.108;6.308;2024-01-10T07:14:33;-5.10;99.90
52397;DHT22;38322;53.108;6.308;2024-01-10T07:16:59;-5.10;99.90
52397;DHT22;38322;53.108;6.308;2024-01-10T07:19:25;-5.00;99.90
52397;DHT22;38322;53.108;6.308;2024-01-10T07:21:51;-5.10;99.90
52397;DHT22;38322;53.108;6.308;2024-01-10T07:24:20;-5.10;99.90
52397;DHT22;38322;53.108;6.308;2024-01-10T07:26:48;-5.10;99.90
52397;DHT22;38322;53.108;6.308;2024-01-10T07:29:14;-5.10;99.90
52397;DHT22;38322;53.108;6.308;2024-01-10T07:31:40;-5.10;99.90
52397;DHT22;38322;53.108;6.308;2024-01-10T07:34:08;-5.20;99.90
52397;DHT22;38322;53.108;6.308;2024-01-10T07:36:41;-5.10;99.90
52397;DHT22;38322;53.108;6.308;2024-01-10T07:39:08;-5.10;99.90
52397;DHT22;38322;53.108;6.308;2024-01-10T07:41:33;-5.10;99.90
52397;DHT22;38322;53.108;6.308;2024-01-10T07:43:59;-5.10;99.90
52397;DHT22;38322;53.108;6.308;2024-01-10T07:46:25;-5.10;99.90
52397;DHT22;38322;53.108;6.308;2024-01-10T07:48:52;-5.10;99.90
52397;DHT22;38322;53.108;6.308;2024-01-10T07:51:18;-5.10;99.90
52397;DHT22;38322;53.108;6.308;2024-01-10T07:53:45;-5.10;99.90
52397;DHT22;38322;53.108;6.308;2024-01-10T07:56:11;-5.10;99.90
52397;DHT22;38322;53.108;6.308;2024-01-10T07:58:38;-5.10;99.90
52397;DHT22;38322;53.108;6.308;2024-01-10T08:01:04;-5.10;99.90
52397;DHT22;38322;53.108;6.308;2024-01-10T08:03:30;-5.10;99.90
52397;DHT22;38322;53.108;6.308;2024-01-10T08:05:56;-5.00;99.90
52397;DHT22;38322;53.108;6.308;2024-01-10T08:08:22;-5.00;99.90
52397;DHT22;38322;53.108;6.308;2024-01-10T08:10:48;-5.00;99.90
52397;DHT22;38322;53.108;6.308;2024-01-10T08:13:13;-5.00;99.90
52397;DHT22;38322;53.108;6.308;2024-01-10T08:15:39;-5.00;99.90
52397;DHT22;38322;53.108;6.308;2024-01-10T08:18:07;-4.90;99.90
52397;DHT22;38322;53.108;6.308;2024-01-10T08:20:33;-4.90;99.90
52397;DHT22;38322;53.108;6.308;2024-01-10T08:22:58;-4.80;99.90
52397;DHT22;38322;53.108;6.308;2024-01-10T08:25:24;-4.80;99.90
52397;DHT22;38322;53.108;6.308;2024-01-10T08:27:51;-4.70;99.90
52397;DHT22;38322;53.108;6.308;2024-01-10T08:30:19;-4.70;99.90
52397;DHT22;38322;53.108;6.308;2024-01-10T08:32:47;-4.60;99.90
52397;DHT22;38322;53.108;6.308;2024-01-10T08:35:13;-4.60;99.90
52397;DHT22;38322;53.108;6.308;2024-01-10T08:37:39;-4.50;99.90
52397;DHT22;38322;53.108;6.308;2024-01-10T08:40:09;-4.50;99.90
52397;DHT22;38322;53.108;6.308;2024-01-10T08:42:38;-4.40;99.90
52397;DHT22;38322;53.108;6.308;2024-01-10T08:45:04;-4.40;99.90
52397;DHT22;38322;53.108;6.308;2024-01-10T08:47:30;-4.30;99.90
52397;DHT22;38322;53.108;6.308;2024-01-10T08:49:59;-4.30;99.90
52397;DHT22;38322;53.108;6.308;2024-01-10T08:52:24;-4.20;99.90
52397;DHT22;38322;53.108;6.308;2024-01-10T08:54:50;-4.20;99.90
52397;DHT22;38322;53.108;6.308;2024-01-10T08:57:17;-4.10;99.90
52397;DHT22;38322;53.108;6.308;2024-01-10T08:59:43;-4.10;99.90
52397;DHT22;38322;53.108;6.308;2024-01-10T09:02:08;-4.10;99.90
52397;DHT22;38322;53.108;6.308;2024-01-10T09:04:34;-4.10;99.90
52397;DHT22;38322;53.108;6.308;2024-01-10T09:07:00;-4.10;99.90
52397;DHT22;38322;53.108;6.308;2024-01-10T09:09:26;-4.00;99.90
52397;DHT22;38322;53.108;6.308;2024-01-10T09:11:52;-4.00;99.90
52397;DHT22;38322;53.108;6.308;2024-01-10T09:14:18;-3.90;99.90
52397;DHT22;38322;53.108;6.308;2024-01-10T09:16:45;-3.90;99.90
52397;DHT22;38322;53.108;6.308;2024-01-10T09:19:11;-3.90;99.90
52397;DHT22;38322;53.108;6.308;2024-01-10T09:21:36;-3.80;99.90
52397;DHT22;38322;53.108;6.308;2024-01-10T09:24:02;-3.70;99.90
52397;DHT22;38322;53.108;6.308;2024-01-10T09:26:33;-3.70;99.90
52397;DHT22;38322;53.108;6.308;2024-01-10T09:28:59;-3.60;99.90
52397;DHT22;38322;53.108;6.308;2024-01-10T09:31:25;-3.60;99.90
52397;DHT22;38322;53.108;6.308;2024-01-10T09:33:51;-3.50;99.90
52397;DHT22;38322;53.108;6.308;2024-01-10T09:36:17;-3.50;99.90
52397;DHT22;38322;53.108;6.308;2024-01-10T09:38:42;-3.50;99.90
52397;DHT22;38322;53.108;6.308;2024-01-10T09:41:11;-3.40;99.90
52397;DHT22;38322;53.108;6.308;2024-01-10T09:43:38;-3.40;99.90
52397;DHT22;38322;53.108;6.308;2024-01-10T09:46:06;-3.40;99.90
52397;DHT22;38322;53.108;6.308;2024-01-10T09:48:33;-3.30;99.90
52397;DHT22;38322;53.108;6.308;2024-01-10T09:50:59;-3.30;99.90
52397;DHT22;38322;53.108;6.308;2024-01-10T09:53:27;-3.20;99.90
52397;DHT22;38322;53.108;6.308;2024-01-10T09:55:53;-3.20;99.90
52397;DHT22;38322;53.108;6.308;2024-01-10T09:58:26;-3.20;99.90
52397;DHT22;38322;53.108;6.308;2024-01-10T10:00:52;-3.10;99.90
52397;DHT22;38322;53.108;6.308;2024-01-10T10:03:19;-3.10;99.90
52397;DHT22;38322;53.108;6.308;2024-01-10T10:05:45;-3.00;99.90
52397;DHT22;38322;53.108;6.308;2024-01-10T10:08:12;-3.00;99.90
52397;DHT22;38322;53.108;6.308;2024-01-10T10:10:41;-3.00;99.90
52397;DHT22;38322;53.108;6.308;2024-01-10T10:13:10;-3.00;99.90
52397;DHT22;38322;53.108;6.308;2024-01-10T10:15:58;-2.90;99.90
52397;DHT22;38322;53.108;6.308;2024-01-10T10:18:25;-2.80;99.90
52397;DHT22;38322;53.108;6.308;2024-01-10T10:21:13;-2.80;99.90
52397;DHT22;38322;53.108;6.308;2024-01-10T10:23:40;-2.70;99.90
52397;DHT22;38322;53.108;6.308;2024-01-10T10:26:12;-2.70;99.90
52397;DHT22;38322;53.108;6.308;2024-01-10T10:28:44;-2.60;99.90
52397;DHT22;38322;53.108;6.308;2024-01-10T10:31:10;-2.60;99.90
52397;DHT22;38322;53.108;6.308;2024-01-10T10:33:37;-2.60;99.90
52397;DHT22;38322;53.108;6.308;2024-01-10T10:36:04;-2.50;99.90
52397;DHT22;38322;53.108;6.308;2024-01-10T10:38:30;-2.50;99.90
52397;DHT22;38322;53.108;6.308;2024-01-10T10:40:58;-2.40;99.90
52397;DHT22;38322;53.108;6.308;2024-01-10T10:43:25;-2.40;99.90
52397;DHT22;38322;53.108;6.308;2024-01-10T10:45:52;-2.30;99.90
52397;DHT22;38322;53.108;6.308;2024-01-10T10:48:19;-2.30;99.90
52397;DHT22;38322;53.108;6.308;2024-01-10T10:51:05;-2.30;99.90
52397;DHT22;38322;53.108;6.308;2024-01-10T10:53:34;-2.30;99.90
52397;DHT22;38322;53.108;6.308;2024-01-10T10:56:07;-2.20;99.90
52397;DHT22;38322;53.108;6.308;2024-01-10T10:58:34;-2.20;99.90
52397;DHT22;38322;53.108;6.308;2024-01-10T11:01:04;-2.20;99.90
52397;DHT22;38322;53.108;6.308;2024-01-10T11:03:35;-2.10;99.90
52397;DHT22;38322;53.108;6.308;2024-01-10T11:06:02;-2.00;99.90
52397;DHT22;38322;53.108;6.308;2024-01-10T11:08:33;-2.10;99.90
52397;DHT22;38322;53.108;6.308;2024-01-10T11:11:01;-2.00;99.90
52397;DHT22;38322;53.108;6.308;2024-01-10T11:13:53;-1.90;99.90
52397;DHT22;38322;53.108;6.308;2024-01-10T11:16:45;-1.90;99.90
52397;DHT22;38322;53.108;6.308;2024-01-10T11:22:13;-1.80;99.90
52397;DHT22;38322;53.108;6.308;2024-01-10T11:24:41;-1.80;99.90
52397;DHT22;38322;53.108;6.308;2024-01-10T11:27:11;-1.80;99.90
52397;DHT22;38322;53.108;6.308;2024-01-10T11:29:38;-1.80;99.90
52397;DHT22;38322;53.108;6.308;2024-01-10T11:32:06;-1.70;99.90
52397;DHT22;38322;53.108;6.308;2024-01-10T11:34:34;-1.70;99.90
52397;DHT22;38322;53.108;6.308;2024-01-10T11:37:12;-1.70;99.90
52397;DHT22;38322;53.108;6.308;2024-01-10T11:39:45;-1.70;99.90
52397;DHT22;38322;53.108;6.308;2024-01-10T11:42:11;-1.60;99.90
52397;DHT22;38322;53.108;6.308;2024-01-10T11:44:52;-1.60;99.90
52397;DHT22;38322;53.108;6.308;2024-01-10T11:47:19;-1.50;99.90
52397;DHT22;38322;53.108;6.308;2024-01-10T11:49:56;-1.50;99.90
52397;DHT22;38322;53.108;6.308;2024-01-10T11:52:23;-1.60;99.90
52397;DHT22;38322;53.108;6.308;2024-01-10T11:54:57;-1.60;99.90
52397;DHT22;38322;53.108;6.308;2024-01-10T11:57:27;-1.50;99.90
52397;DHT22;38322;53.108;6.308;2024-01-10T11:59:55;-1.50;99.90
52397;DHT22;38322;53.108;6.308;2024-01-10T12:02:23;-1.50;99.90
52397;DHT22;38322;53.108;6.308;2024-01-10T12:04:50;-1.50;99.90
52397;DHT22;38322;53.108;6.308;2024-01-10T12:07:18;-1.50;99.90
52397;DHT22;38322;53.108;6.308;2024-01-10T12:09:45;-1.50;99.90
52397;DHT22;38322;53.108;6.308;2024-01-10T12:12:13;-1.40;99.90
52397;DHT22;38322;53.108;6.308;2024-01-10T12:14:40;-1.40;99.90
52397;DHT22;38322;53.108;6.308;2024-01-10T12:17:06;-1.40;99.90
52397;DHT22;38322;53.108;6.308;2024-01-10T12:19:34;-1.40;99.90
52397;DHT22;38322;53.108;6.308;2024-01-10T12:22:05;-1.40;99.90
52397;DHT22;38322;53.108;6.308;2024-01-10T12:24:31;-1.40;99.90
52397;DHT22;38322;53.108;6.308;2024-01-10T12:26:58;-1.40;99.90
52397;DHT22;38322;53.108;6.308;2024-01-10T12:29:24;-1.30;99.90
52397;DHT22;38322;53.108;6.308;2024-01-10T12:31:51;-1.30;99.90
52397;DHT22;38322;53.108;6.308;2024-01-10T12:34:17;-1.30;99.90
52397;DHT22;38322;53.108;6.308;2024-01-10T12:36:43;-1.30;99.90
52397;DHT22;38322;53.108;6.308;2024-01-10T12:39:10;-1.30;99.90
52397;DHT22;38322;53.108;6.308;2024-01-10T12:41:37;-1.30;99.90
52397;DHT22;38322;53.108;6.308;2024-01-10T12:44:04;-1.30;99.90
52397;DHT22;38322;53.108;6.308;2024-01-10T12:46:31;-1.30;99.90
52397;DHT22;38322;53.108;6.308;2024-01-10T12:49:04;-1.30;99.90
52397;DHT22;38322;53.108;6.308;2024-01-10T12:51:32;-1.20;99.90
52397;DHT22;38322;53.108;6.308;2024-01-10T12:53:59;-1.20;99.90
52397;DHT22;38322;53.108;6.308;2024-01-10T12:56:26;-1.20;99.90
52397;DHT22;38322;53.108;6.308;2024-01-10T12:58:52;-1.10;99.90
52397;DHT22;38322;53.108;6.308;2024-01-10T13:01:18;-1.10;99.90
52397;DHT22;38322;53.108;6.308;2024-01-10T13:03:45;-1.10;99.90
52397;DHT22;38322;53.108;6.308;2024-01-10T13:06:11;-1.10;99.90
52397;DHT22;38322;53.108;6.308;2024-01-10T13:08:37;-1.10;99.90
52397;DHT22;38322;53.108;6.308;2024-01-10T13:11:03;-1.00;99.90
52397;DHT22;38322;53.108;6.308;2024-01-10T13:13:35;-1.00;99.90
52397;DHT22;38322;53.108;6.308;2024-01-10T13:16:01;-1.00;99.90
52397;DHT22;38322;53.108;6.308;2024-01-10T13:18:27;-0.90;99.90
52397;DHT22;38322;53.108;6.308;2024-01-10T13:20:54;-1.00;99.90
52397;DHT22;38322;53.108;6.308;2024-01-10T13:23:20;-0.90;99.90
52397;DHT22;38322;53.108;6.308;2024-01-10T13:25:48;-0.90;99.90
52397;DHT22;38322;53.108;6.308;2024-01-10T13:28:14;-0.90;99.90
52397;DHT22;38322;53.108;6.308;2024-01-10T13:30:41;-0.90;99.90
52397;DHT22;38322;53.108;6.308;2024-01-10T13:33:09;-0.90;99.90
52397;DHT22;38322;53.108;6.308;2024-01-10T13:35:36;-0.80;99.90
52397;DHT22;38322;53.108;6.308;2024-01-10T13:38:02;-0.80;99.90
52397;DHT22;38322;53.108;6.308;2024-01-10T13:40:28;-0.80;99.90
52397;DHT22;38322;53.108;6.308;2024-01-10T13:42:54;-0.90;99.90
52397;DHT22;38322;53.108;6.308;2024-01-10T13:45:20;-0.90;99.90
52397;DHT22;38322;53.108;6.308;2024-01-10T13:47:47;-0.90;99.90
52397;DHT22;38322;53.108;6.308;2024-01-10T13:50:15;-0.90;99.90
52397;DHT22;38322;53.108;6.308;2024-01-10T13:52:41;-0.90;99.90
52397;DHT22;38322;53.108;6.308;2024-01-10T13:55:08;-0.90;99.90
52397;DHT22;38322;53.108;6.308;2024-01-10T13:57:35;-0.90;99.90
52397;DHT22;38322;53.108;6.308;2024-01-10T14:00:02;-0.90;99.90
52397;DHT22;38322;53.108;6.308;2024-01-10T14:02:29;-0.90;99.90
52397;DHT22;38322;53.108;6.308;2024-01-10T14:04:55;-1.00;99.90
52397;DHT22;38322;53.108;6.308;2024-01-10T14:07:23;-1.00;99.90
52397;DHT22;38322;53.108;6.308;2024-01-10T14:09:50;-1.00;99.90
52397;DHT22;38322;53.108;6.308;2024-01-10T14:12:16;-1.00;99.90
52397;DHT22;38322;53.108;6.308;2024-01-10T14:14:42;-1.00;99.90
52397;DHT22;38322;53.108;6.308;2024-01-10T14:17:08;-1.00;99.90
52397;DHT22;38322;53.108;6.308;2024-01-10T14:19:36;-1.00;99.90
52397;DHT22;38322;53.108;6.308;2024-01-10T14:22:02;-1.10;99.90
52397;DHT22;38322;53.108;6.308;2024-01-10T14:24:28;-1.10;99.90
52397;DHT22;38322;53.108;6.308;2024-01-10T14:26:53;-1.10;99.90
52397;DHT22;38322;53.108;6.308;2024-01-10T14:29:20;-1.10;99.90
52397;DHT22;38322;53.108;6.308;2024-01-10T14:31:48;-1.20;99.90
52397;DHT22;38322;53.108;6.308;2024-01-10T14:34:15;-1.20;99.90
52397;DHT22;38322;53.108;6.308;2024-01-10T14:36:41;-1.20;99.90
52397;DHT22;38322;53.108;6.308;2024-01-10T14:39:07;-1.20;99.90
52397;DHT22;38322;53.108;6.308;2024-01-10T14:41:33;-1.30;99.90
52397;DHT22;38322;53.108;6.308;2024-01-10T14:44:00;-1.30;99.90
52397;DHT22;38322;53.108;6.308;2024-01-10T14:46:26;-1.30;99.90
52397;DHT22;38322;53.108;6.308;2024-01-10T14:48:54;-1.30;99.90
52397;DHT22;38322;53.108;6.308;2024-01-10T14:51:20;-1.40;99.90
52397;DHT22;38322;53.108;6.308;2024-01-10T14:53:46;-1.40;99.90
52397;DHT22;38322;53.108;6.308;2024-01-10T14:56:11;-1.40;99.90
52397;DHT22;38322;53.108;6.308;2024-01-10T14:58:39;-1.50;99.90
52397;DHT22;38322;53.108;6.308;2024-01-10T15:01:12;-1.50;99.90
52397;DHT22;38322;53.108;6.308;2024-01-10T15:03:39;-1.50;99.90
52397;DHT22;38322;53.108;6.308;2024-01-10T15:06:05;-1.50;99.90
52397;DHT22;38322;53.108;6.308;2024-01-10T15:08:32;-1.50;99.90
52397;DHT22;38322;53.108;6.308;2024-01-10T15:11:00;-1.60;99.90
52397;DHT22;38322;53.108;6.308;2024-01-10T15:13:26;-1.60;99.90
52397;DHT22;38322;53.108;6.308;2024-01-10T15:15:51;-1.60;99.90
52397;DHT22;38322;53.108;6.308;2024-01-10T15:18:17;-1.60;99.90
52397;DHT22;38322;53.108;6.308;2024-01-10T15:20:46;-1.70;99.90
52397;DHT22;38322;53.108;6.308;2024-01-10T15:23:12;-1.80;99.90
52397;DHT22;38322;53.108;6.308;2024-01-10T15:25:38;-1.80;99.90
52397;DHT22;38322;53.108;6.308;2024-01-10T15:28:04;-1.90;99.90
52397;DHT22;38322;53.108;6.308;2024-01-10T15:30:30;-1.90;99.90
52397;DHT22;38322;53.108;6.308;2024-01-10T15:32:58;-1.90;99.90
52397;DHT22;38322;53.108;6.308;2024-01-10T15:35:24;-2.00;99.90
52397;DHT22;38322;53.108;6.308;2024-01-10T15:37:51;-2.10;99.90
52397;DHT22;38322;53.108;6.308;2024-01-10T15:40:18;-2.10;99.90
52397;DHT22;38322;53.108;6.308;2024-01-10T15:42:44;-2.20;99.90
52397;DHT22;38322;53.108;6.308;2024-01-10T15:45:11;-2.20;99.90
52397;DHT22;38322;53.108;6.308;2024-01-10T15:47:37;-2.30;99.90
52397;DHT22;38322;53.108;6.308;2024-01-10T15:50:04;-2.30;99.90
52397;DHT22;38322;53.108;6.308;2024-01-10T15:52:30;-2.30;99.90
52397;DHT22;38322;53.108;6.308;2024-01-10T15:54:59;-2.30;99.90
52397;DHT22;38322;53.108;6.308;2024-01-10T15:57:25;-2.40;99.90
52397;DHT22;38322;53.108;6.308;2024-01-10T15:59:51;-2.40;99.90
52397;DHT22;38322;53.108;6.308;2024-01-10T16:02:17;-2.50;99.90
52397;DHT22;38322;53.108;6.308;2024-01-10T16:04:43;-2.50;99.90
52397;DHT22;38322;53.108;6.308;2024-01-10T16:07:09;-2.60;99.90
52397;DHT22;38322;53.108;6.308;2024-01-10T16:09:36;-2.60;99.90
52397;DHT22;38322;53.108;6.308;2024-01-10T16:12:03;-2.60;99.90
52397;DHT22;38322;53.108;6.308;2024-01-10T16:14:29;-2.70;99.90
52397;DHT22;38322;53.108;6.308;2024-01-10T16:16:55;-2.70;99.90
52397;DHT22;38322;53.108;6.308;2024-01-10T16:19:22;-2.80;99.90
52397;DHT22;38322;53.108;6.308;2024-01-10T16:21:48;-2.80;99.90
52397;DHT22;38322;53.108;6.308;2024-01-10T16:24:14;-2.80;99.90
52397;DHT22;38322;53.108;6.308;2024-01-10T16:26:40;-2.80;99.90
52397;DHT22;38322;53.108;6.308;2024-01-10T16:29:06;-2.80;99.90
52397;DHT22;38322;53.108;6.308;2024-01-10T16:31:32;-2.90;99.90
52397;DHT22;38322;53.108;6.308;2024-01-10T16:33:58;-2.90;99.90
52397;DHT22;38322;53.108;6.308;2024-01-10T16:36:24;-2.90;99.90
52397;DHT22;38322;53.108;6.308;2024-01-10T16:38:51;-2.90;99.90
52397;DHT22;38322;53.108;6.308;2024-01-10T16:41:17;-3.00;99.90
52397;DHT22;38322;53.108;6.308;2024-01-10T16:43:42;-3.00;99.90
52397;DHT22;38322;53.108;6.308;2024-01-10T16:46:09;-3.00;99.90
52397;DHT22;38322;53.108;6.308;2024-01-10T16:48:35;-3.00;99.90
52397;DHT22;38322;53.108;6.308;2024-01-10T16:51:01;-3.10;99.90
52397;DHT22;38322;53.108;6.308;2024-01-10T16:53:27;-3.20;99.90
52397;DHT22;38322;53.108;6.308;2024-01-10T16:55:53;-3.20;99.90
52397;DHT22;38322;53.108;6.308;2024-01-10T16:58:20;-3.20;99.90
52397;DHT22;38322;53.108;6.308;2024-01-10T17:00:46;-3.10;99.90
52397;DHT22;38322;53.108;6.308;2024-01-10T17:03:13;-3.20;99.90
52397;DHT22;38322;53.108;6.308;2024-01-10T17:05:39;-3.20;99.90
52397;DHT22;38322;53.108;6.308;2024-01-10T17:08:05;-3.20;99.90
52397;DHT22;38322;53.108;6.308;2024-01-10T17:10:32;-3.30;99.90
52397;DHT22;38322;53.108;6.308;2024-01-10T17:12:58;-3.30;99.90
52397;DHT22;38322;53.108;6.308;2024-01-10T17:15:24;-3.30;99.90
52397;DHT22;38322;53.108;6.308;2024-01-10T17:17:50;-3.30;99.90
52397;DHT22;38322;53.108;6.308;2024-01-10T17:20:16;-3.30;99.90
52397;DHT22;38322;53.108;6.308;2024-01-10T17:22:42;-3.30;99.90
52397;DHT22;38322;53.108;6.308;2024-01-10T17:25:09;-3.30;99.90
52397;DHT22;38322;53.108;6.308;2024-01-10T17:27:36;-3.30;99.90
52397;DHT22;38322;53.108;6.308;2024-01-10T17:30:04;-3.30;99.90
52397;DHT22;38322;53.108;6.308;2024-01-10T17:32:30;-3.30;99.90
52397;DHT22;38322;53.108;6.308;2024-01-10T17:34:56;-3.40;99.90
52397;DHT22;38322;53.108;6.308;2024-01-10T17:37:23;-3.40;99.90
52397;DHT22;38322;53.108;6.308;2024-01-10T17:39:48;-3.40;99.90
52397;DHT22;38322;53.108;6.308;2024-01-10T17:42:14;-3.40;99.90
52397;DHT22;38322;53.108;6.308;2024-01-10T17:44:40;-3.40;99.90
52397;DHT22;38322;53.108;6.308;2024-01-10T17:47:06;-3.50;99.90
52397;DHT22;38322;53.108;6.308;2024-01-10T17:49:36;-3.50;99.90
52397;DHT22;38322;53.108;6.308;2024-01-10T17:52:02;-3.50;99.90
52397;DHT22;38322;53.108;6.308;2024-01-10T17:54:28;-3.50;99.90
52397;DHT22;38322;53.108;6.308;2024-01-10T17:56:54;-3.50;99.90
52397;DHT22;38322;53.108;6.308;2024-01-10T17:59:20;-3.50;99.90
52397;DHT22;38322;53.108;6.308;2024-01-10T18:01:46;-3.50;99.90
52397;DHT22;38322;53.108;6.308;2024-01-10T18:04:14;-3.50;99.90
52397;DHT22;38322;53.108;6.308;2024-01-10T18:06:40;-3.50;99.90
52397;DHT22;38322;53.108;6.308;2024-01-10T18:09:06;-3.40;99.90
52397;DHT22;38322;53.108;6.308;2024-01-10T18:11:32;-3.40;99.90
52397;DHT22;38322;53.108;6.308;2024-01-10T18:13:58;-3.40;99.90
52397;DHT22;38322;53.108;6.308;2024-01-10T18:16:24;-3.40;99.90
52397;DHT22;38322;53.108;6.308;2024-01-10T18:18:50;-3.40;99.90
52397;DHT22;38322;53.108;6.308;2024-01-10T18:21:17;-3.40;99.90
52397;DHT22;38322;53.108;6.308;2024-01-10T18:23:43;-3.40;99.90
52397;DHT22;38322;53.108;6.308;2024-01-10T18:26:09;-3.40;99.90
52397;DHT22;38322;53.108;6.308;2024-01-10T18:28:35;-3.40;99.90
52397;DHT22;38322;53.108;6.308;2024-01-10T18:31:01;-3.40;99.90
52397;DHT22;38322;53.108;6.308;2024-01-10T18:33:29;-3.50;99.90
52397;DHT22;38322;53.108;6.308;2024-01-10T18:35:55;-3.50;99.90
52397;DHT22;38322;53.108;6.308;2024-01-10T18:38:21;-3.50;99.90
52397;DHT22;38322;53.108;6.308;2024-01-10T18:40:47;-3.60;99.90
52397;DHT22;38322;53.108;6.308;2024-01-10T18:43:13;-3.60;99.90
52397;DHT22;38322;53.108;6.308;2024-01-10T18:45:40;-3.60;99.90
52397;DHT22;38322;53.108;6.308;2024-01-10T18:48:06;-3.60;99.90
52397;DHT22;38322;53.108;6.308;2024-01-10T18:50:32;-3.60;99.90
52397;DHT22;38322;53.108;6.308;2024-01-10T18:52:58;-3.60;99.90
52397;DHT22;38322;53.108;6.308;2024-01-10T18:55:24;-3.60;99.90
52397;DHT22;38322;53.108;6.308;2024-01-10T18:57:50;-3.70;99.90
52397;DHT22;38322;53.108;6.308;2024-01-10T19:00:19;-3.70;99.90
52397;DHT22;38322;53.108;6.308;2024-01-10T19:02:53;-3.70;99.90
52397;DHT22;38322;53.108;6.308;2024-01-10T19:05:18;-3.70;99.90
52397;DHT22;38322;53.108;6.308;2024-01-10T19:07:47;-3.70;99.90
52397;DHT22;38322;53.108;6.308;2024-01-10T19:10:13;-3.70;99.90
52397;DHT22;38322;53.108;6.308;2024-01-10T19:12:39;-3.70;99.90
52397;DHT22;38322;53.108;6.308;2024-01-10T19:15:05;-3.70;99.90
52397;DHT22;38322;53.108;6.308;2024-01-10T19:17:32;-3.80;99.90
52397;DHT22;38322;53.108;6.308;2024-01-10T19:19:58;-3.70;99.90
52397;DHT22;38322;53.108;6.308;2024-01-10T19:22:23;-3.80;99.90
52397;DHT22;38322;53.108;6.308;2024-01-10T19:24:49;-3.80;99.90
52397;DHT22;38322;53.108;6.308;2024-01-10T19:27:15;-3.80;99.90
52397;DHT22;38322;53.108;6.308;2024-01-10T19:29:42;-3.80;99.90
52397;DHT22;38322;53.108;6.308;2024-01-10T19:32:08;-4.80;99.90
52397;DHT22;38322;53.108;6.308;2024-01-10T19:34:34;-3.80;99.90
52397;DHT22;38322;53.108;6.308;2024-01-10T19:37:00;-3.90;99.90
52397;DHT22;38322;53.108;6.308;2024-01-10T19:39:26;-3.90;99.90
52397;DHT22;38322;53.108;6.308;2024-01-10T19:41:53;-3.90;99.90
52397;DHT22;38322;53.108;6.308;2024-01-10T19:44:19;-3.90;99.90
52397;DHT22;38322;53.108;6.308;2024-01-10T19:46:45;-3.90;99.90
52397;DHT22;38322;53.108;6.308;2024-01-10T19:49:13;-4.00;99.90
52397;DHT22;38322;53.108;6.308;2024-01-10T19:51:40;-4.00;99.90
52397;DHT22;38322;53.108;6.308;2024-01-10T19:54:06;-4.00;99.90
52397;DHT22;38322;53.108;6.308;2024-01-10T19:56:32;-4.00;99.90
52397;DHT22;38322;53.108;6.308;2024-01-10T19:58:58;-4.00;99.90
52397;DHT22;38322;53.108;6.308;2024-01-10T20:01:25;-4.00;99.90
52397;DHT22;38322;53.108;6.308;2024-01-10T20:03:51;-4.10;99.90
52397;DHT22;38322;53.108;6.308;2024-01-10T20:06:17;-4.00;99.90
52397;DHT22;38322;53.108;6.308;2024-01-10T20:08:44;-4.10;99.90
52397;DHT22;38322;53.108;6.308;2024-01-10T20:11:10;-4.10;99.90
52397;DHT22;38322;53.108;6.308;2024-01-10T20:13:36;-4.10;99.90
52397;DHT22;38322;53.108;6.308;2024-01-10T20:16:06;-4.10;99.90
52397;DHT22;38322;53.108;6.308;2024-01-10T20:18:32;-4.20;99.90
52397;DHT22;38322;53.108;6.308;2024-01-10T20:20:59;-4.10;99.90
52397;DHT22;38322;53.108;6.308;2024-01-10T20:23:25;-4.10;99.90
52397;DHT22;38322;53.108;6.308;2024-01-10T20:25:51;-4.10;99.90
52397;DHT22;38322;53.108;6.308;2024-01-10T20:28:17;-4.10;99.90
52397;DHT22;38322;53.108;6.308;2024-01-10T20:30:45;-4.10;99.90
52397;DHT22;38322;53.108;6.308;2024-01-10T20:33:11;-4.10;99.90
52397;DHT22;38322;53.108;6.308;2024-01-10T20:35:37;-3.60;99.90
52397;DHT22;38322;53.108;6.308;2024-01-10T20:38:03;-4.10;99.90
52397;DHT22;38322;53.108;6.308;2024-01-10T20:40:29;-4.10;99.90
52397;DHT22;38322;53.108;6.308;2024-01-10T20:42:55;-4.20;99.90
52397;DHT22;38322;53.108;6.308;2024-01-10T20:45:21;-4.20;99.90
52397;DHT22;38322;53.108;6.308;2024-01-10T20:47:46;-4.20;99.90
52397;DHT22;38322;53.108;6.308;2024-01-10T20:50:12;-4.20;99.90
52397;DHT22;38322;53.108;6.308;2024-01-10T20:52:38;-4.20;99.90
52397;DHT22;38322;53.108;6.308;2024-01-10T20:55:05;-4.30;99.90
52397;DHT22;38322;53.108;6.308;2024-01-10T20:57:31;-4.30;99.90
52397;DHT22;38322;53.108;6.308;2024-01-10T20:59:58;-4.30;99.90
